sensor_id;sensor_type;location;lat;lon;timestamp;pressure;altitude;pressure_sealevel;temperature;humidity
64078;BME280;51039;49.696;10.808;2023-04-07T00:01:51;98451.22;;;1.80;80.01
64078;BME280;51039;49.696;10.808;2023-04-07T00:04:16;98457.53;;;1.77;80.44
64078;BME280;51039;49.696;10.808;2023-04-07T00:06:42;98452.88;;;1.71;80.41
64078;BME280;51039;49.696;10.808;2023-04-07T00:09:07;98450.59;;;1.68;80.91
64078;BME280;51039;49.696;10.808;2023-04-07T00:11:34;98443.84;;;1.65;80.80
64078;BME280;51039;49.696;10.808;2023-04-07T00:14:00;98445.91;;;1.62;80.95
64078;BME280;51039;49.696;10.808;2023-04-07T00:16:25;98445.41;;;1.58;81.18
64078;BME280;51039;49.696;10.808;2023-04-07T00:18:50;98435.63;;;1.60;81.54
64078;BME280;51039;49.696;10.808;2023-04-07T00:21:16;98447.16;;;1.57;81.20
64078;BME280;51039;49.696;10.808;2023-04-07T00:23:41;98442.25;;;1.54;81.16
64078;BME280;51039;49.696;10.808;2023-04-07T00:26:06;98445.28;;;1.50;81.46
64078;BME280;51039;49.696;10.808;2023-04-07T00:28:32;98434.47;;;1.45;81.36
64078;BME280;51039;49.696;10.808;2023-04-07T00:30:57;98442.28;;;1.45;81.13
64078;BME280;51039;49.696;10.808;2023-04-07T00:33:22;98439.81;;;1.43;81.02
64078;BME280;51039;49.696;10.808;2023-04-07T00:35:48;98439.41;;;1.38;81.14
64078;BME280;51039;49.696;10.808;2023-04-07T00:38:13;98436.41;;;1.23;81.78
64078;BME280;51039;49.696;10.808;2023-04-07T00:40:38;98434.66;;;1.24;82.16
64078;BME280;51039;49.696;10.808;2023-04-07T00:43:03;98427.50;;;1.26;82.40
64078;BME280;51039;49.696;10.808;2023-04-07T00:45:29;98422.16;;;1.27;82.51
64078;BME280;51039;49.696;10.808;2023-04-07T00:47:55;98429.59;;;1.12;82.85
64078;BME280;51039;49.696;10.808;2023-04-07T00:50:22;98417.13;;;1.06;83.65
64078;BME280;51039;49.696;10.808;2023-04-07T00:52:47;98427.13;;;1.11;83.58
64078;BME280;51039;49.696;10.808;2023-04-07T00:55:13;98423.28;;;1.05;84.04
64078;BME280;51039;49.696;10.808;2023-04-07T00:57:38;98416.56;;;1.12;84.52
64078;BME280;51039;49.696;10.808;2023-04-07T01:00:03;98417.91;;;1.16;84.37
64078;BME280;51039;49.696;10.808;2023-04-07T01:05:45;98414.09;;;1.11;84.00
64078;BME280;51039;49.696;10.808;2023-04-07T01:08:20;98406.69;;;1.06;84.12
64078;BME280;51039;49.696;10.808;2023-04-07T01:11:25;98406.97;;;1.03;84.29
64078;BME280;51039;49.696;10.808;2023-04-07T01:13:54;98400.66;;;0.96;84.82
64078;BME280;51039;49.696;10.808;2023-04-07T01:18:53;98396.31;;;0.87;84.96
64078;BME280;51039;49.696;10.808;2023-04-07T01:21:21;98402.34;;;0.87;85.54
64078;BME280;51039;49.696;10.808;2023-04-07T01:26:48;98403.00;;;0.99;85.92
64078;BME280;51039;49.696;10.808;2023-04-07T01:31:56;98399.91;;;1.13;85.13
64078;BME280;51039;49.696;10.808;2023-04-07T01:34:24;98399.78;;;1.15;85.03
64078;BME280;51039;49.696;10.808;2023-04-07T01:36:51;98406.09;;;1.22;85.10
64078;BME280;51039;49.696;10.808;2023-04-07T01:39:18;98406.66;;;1.16;84.92
64078;BME280;51039;49.696;10.808;2023-04-07T01:41:45;98405.53;;;1.18;84.98
64078;BME280;51039;49.696;10.808;2023-04-07T01:44:11;98402.81;;;1.20;85.12
64078;BME280;51039;49.696;10.808;2023-04-07T01:46:37;98400.06;;;1.22;85.62
64078;BME280;51039;49.696;10.808;2023-04-07T01:49:03;98390.31;;;1.24;85.67
64078;BME280;51039;49.696;10.808;2023-04-07T01:51:29;98389.19;;;1.26;85.23
64078;BME280;51039;49.696;10.808;2023-04-07T01:53:56;98393.63;;;1.16;85.88
64078;BME280;51039;49.696;10.808;2023-04-07T01:56:23;98386.47;;;1.18;85.85
64078;BME280;51039;49.696;10.808;2023-04-07T01:58:48;98392.38;;;1.20;86.12
64078;BME280;51039;49.696;10.808;2023-04-07T02:01:13;98390.03;;;1.17;86.75
64078;BME280;51039;49.696;10.808;2023-04-07T02:03:41;98386.59;;;1.16;87.00
64078;BME280;51039;49.696;10.808;2023-04-07T02:06:11;98387.19;;;1.10;86.93
64078;BME280;51039;49.696;10.808;2023-04-07T02:08:43;98380.59;;;1.06;87.40
64078;BME280;51039;49.696;10.808;2023-04-07T02:11:12;98383.44;;;1.13;87.10
64078;BME280;51039;49.696;10.808;2023-04-07T02:13:41;98383.91;;;1.08;87.38
64078;BME280;51039;49.696;10.808;2023-04-07T02:16:08;98378.13;;;1.05;87.62
64078;BME280;51039;49.696;10.808;2023-04-07T02:18:34;98375.25;;;0.98;87.64
64078;BME280;51039;49.696;10.808;2023-04-07T02:21:01;98377.47;;;0.93;88.26
64078;BME280;51039;49.696;10.808;2023-04-07T02:23:29;98375.69;;;0.93;87.97
64078;BME280;51039;49.696;10.808;2023-04-07T02:25:56;98378.03;;;0.87;88.43
64078;BME280;51039;49.696;10.808;2023-04-07T02:28:22;98381.59;;;0.86;88.35
64078;BME280;51039;49.696;10.808;2023-04-07T02:30:47;98383.81;;;0.81;88.99
64078;BME280;51039;49.696;10.808;2023-04-07T02:33:13;98382.16;;;0.80;89.22
64078;BME280;51039;49.696;10.808;2023-04-07T02:35:38;98379.69;;;0.78;89.39
64078;BME280;51039;49.696;10.808;2023-04-07T02:38:04;98385.88;;;0.87;88.86
64078;BME280;51039;49.696;10.808;2023-04-07T02:40:30;98375.41;;;0.96;88.49
64078;BME280;51039;49.696;10.808;2023-04-07T02:42:55;98376.09;;;0.98;87.62
64078;BME280;51039;49.696;10.808;2023-04-07T02:45:20;98371.25;;;1.04;87.23
64078;BME280;51039;49.696;10.808;2023-04-07T02:47:45;98375.38;;;1.06;87.38
64078;BME280;51039;49.696;10.808;2023-04-07T02:50:11;98374.81;;;1.12;87.22
64078;BME280;51039;49.696;10.808;2023-04-07T02:52:36;98380.88;;;1.03;87.34
64078;BME280;51039;49.696;10.808;2023-04-07T02:55:01;98378.53;;;1.10;87.28
64078;BME280;51039;49.696;10.808;2023-04-07T02:57:27;98374.81;;;1.12;87.47
64078;BME280;51039;49.696;10.808;2023-04-07T02:59:53;98376.75;;;1.10;87.47
64078;BME280;51039;49.696;10.808;2023-04-07T03:02:20;98379.47;;;1.18;86.75
64078;BME280;51039;49.696;10.808;2023-04-07T03:04:45;98376.72;;;1.20;86.09
64078;BME280;51039;49.696;10.808;2023-04-07T03:07:10;98379.72;;;1.15;85.85
64078;BME280;51039;49.696;10.808;2023-04-07T03:09:35;98375.91;;;1.20;86.24
64078;BME280;51039;49.696;10.808;2023-04-07T03:12:01;98371.06;;;1.25;86.70
64078;BME280;51039;49.696;10.808;2023-04-07T03:14:26;98369.44;;;1.24;86.80
64078;BME280;51039;49.696;10.808;2023-04-07T03:16:52;98366.25;;;1.30;86.77
64078;BME280;51039;49.696;10.808;2023-04-07T03:19:17;98361.00;;;1.30;86.79
64078;BME280;51039;49.696;10.808;2023-04-07T03:21:42;98357.97;;;1.34;86.47
64078;BME280;51039;49.696;10.808;2023-04-07T03:24:07;98356.56;;;1.40;86.64
64078;BME280;51039;49.696;10.808;2023-04-07T03:26:33;98353.97;;;1.40;86.45
64078;BME280;51039;49.696;10.808;2023-04-07T03:28:59;98357.56;;;1.39;86.87
64078;BME280;51039;49.696;10.808;2023-04-07T03:31:24;98356.56;;;1.40;86.15
64078;BME280;51039;49.696;10.808;2023-04-07T03:33:50;98357.81;;;1.36;85.59
64078;BME280;51039;49.696;10.808;2023-04-07T03:36:15;98353.06;;;1.31;85.01
64078;BME280;51039;49.696;10.808;2023-04-07T03:38:42;98350.03;;;1.26;84.64
64078;BME280;51039;49.696;10.808;2023-04-07T03:41:08;98359.34;;;1.29;84.28
64078;BME280;51039;49.696;10.808;2023-04-07T03:43:33;98359.63;;;1.35;83.97
64078;BME280;51039;49.696;10.808;2023-04-07T03:45:58;98359.19;;;1.40;83.79
64078;BME280;51039;49.696;10.808;2023-04-07T03:48:24;98351.75;;;1.45;83.87
64078;BME280;51039;49.696;10.808;2023-04-07T03:50:49;98339.38;;;1.47;83.56
64078;BME280;51039;49.696;10.808;2023-04-07T03:53:14;98345.00;;;1.52;83.66
64078;BME280;51039;49.696;10.808;2023-04-07T03:55:40;98346.03;;;1.60;83.75
64078;BME280;51039;49.696;10.808;2023-04-07T03:58:06;98344.09;;;1.62;83.56
64078;BME280;51039;49.696;10.808;2023-04-07T04:00:32;98336.97;;;1.64;83.92
64078;BME280;51039;49.696;10.808;2023-04-07T04:02:58;98344.19;;;1.70;82.90
64078;BME280;51039;49.696;10.808;2023-04-07T04:05:24;98349.28;;;1.71;83.47
64078;BME280;51039;49.696;10.808;2023-04-07T04:07:49;98344.41;;;1.76;83.79
64078;BME280;51039;49.696;10.808;2023-04-07T04:10:16;98343.16;;;1.81;83.76
64078;BME280;51039;49.696;10.808;2023-04-07T04:12:42;98345.63;;;1.82;84.28
64078;BME280;51039;49.696;10.808;2023-04-07T04:15:08;98345.63;;;1.82;84.43
64078;BME280;51039;49.696;10.808;2023-04-07T04:17:34;98340.13;;;1.85;83.79
64078;BME280;51039;49.696;10.808;2023-04-07T04:19:59;98343.69;;;1.84;83.24
64078;BME280;51039;49.696;10.808;2023-04-07T04:22:25;98349.38;;;1.80;82.34
64078;BME280;51039;49.696;10.808;2023-04-07T04:24:50;98341.59;;;1.70;82.17
64078;BME280;51039;49.696;10.808;2023-04-07T04:27:15;98349.03;;;1.65;82.53
64078;BME280;51039;49.696;10.808;2023-04-07T04:29:41;98348.28;;;1.54;81.88
64078;BME280;51039;49.696;10.808;2023-04-07T04:32:06;98341.41;;;1.53;82.51
64078;BME280;51039;49.696;10.808;2023-04-07T04:34:31;98346.91;;;1.50;82.99
64078;BME280;51039;49.696;10.808;2023-04-07T04:36:56;98337.84;;;1.54;82.87
64078;BME280;51039;49.696;10.808;2023-04-07T04:39:22;98334.19;;;1.65;82.46
64078;BME280;51039;49.696;10.808;2023-04-07T04:41:47;98336.97;;;1.64;82.41
64078;BME280;51039;49.696;10.808;2023-04-07T04:44:12;98336.25;;;1.62;82.96
64078;BME280;51039;49.696;10.808;2023-04-07T04:46:38;98345.06;;;1.61;82.98
64078;BME280;51039;49.696;10.808;2023-04-07T04:49:03;98339.94;;;1.69;83.16
64078;BME280;51039;49.696;10.808;2023-04-07T04:51:28;98339.78;;;1.70;83.40
64078;BME280;51039;49.696;10.808;2023-04-07T04:53:54;98339.34;;;1.75;83.76
64078;BME280;51039;49.696;10.808;2023-04-07T04:56:19;98342.94;;;1.74;83.32
64078;BME280;51039;49.696;10.808;2023-04-07T04:58:45;98342.06;;;1.83;82.13
64078;BME280;51039;49.696;10.808;2023-04-07T05:01:13;98340.19;;;1.93;81.92
64078;BME280;51039;49.696;10.808;2023-04-07T05:03:39;98336.84;;;2.01;81.58
64078;BME280;51039;49.696;10.808;2023-04-07T05:06:05;98345.63;;;2.00;81.78
64078;BME280;51039;49.696;10.808;2023-04-07T05:08:30;98345.94;;;2.15;81.80
64078;BME280;51039;49.696;10.808;2023-04-07T05:10:55;98341.59;;;2.42;80.53
64078;BME280;51039;49.696;10.808;2023-04-07T05:13:21;98337.09;;;2.70;79.17
64078;BME280;51039;49.696;10.808;2023-04-07T05:15:46;98349.75;;;2.83;78.63
64078;BME280;51039;49.696;10.808;2023-04-07T05:18:11;98332.72;;;2.79;78.71
64078;BME280;51039;49.696;10.808;2023-04-07T05:20:37;98344.88;;;2.88;78.88
64078;BME280;51039;49.696;10.808;2023-04-07T05:23:03;98341.50;;;2.95;78.65
64078;BME280;51039;49.696;10.808;2023-04-07T05:25:28;98347.88;;;2.93;79.70
64078;BME280;51039;49.696;10.808;2023-04-07T05:27:53;98342.56;;;3.11;78.78
64078;BME280;51039;49.696;10.808;2023-04-07T05:30:19;98343.06;;;3.14;78.62
64078;BME280;51039;49.696;10.808;2023-04-07T05:32:45;98342.72;;;3.09;79.36
64078;BME280;51039;49.696;10.808;2023-04-07T05:35:10;98340.94;;;3.10;79.36
64078;BME280;51039;49.696;10.808;2023-04-07T05:37:35;98337.81;;;3.06;79.52
64078;BME280;51039;49.696;10.808;2023-04-07T05:40:01;98343.84;;;3.07;80.13
64078;BME280;51039;49.696;10.808;2023-04-07T05:42:26;98344.00;;;3.05;79.79
64078;BME280;51039;49.696;10.808;2023-04-07T05:44:51;98340.81;;;2.93;80.44
64078;BME280;51039;49.696;10.808;2023-04-07T05:47:17;98340.53;;;2.97;80.76
64078;BME280;51039;49.696;10.808;2023-04-07T05:49:42;98347.53;;;2.96;80.38
64078;BME280;51039;49.696;10.808;2023-04-07T05:52:13;98349.22;;;3.05;79.68
64078;BME280;51039;49.696;10.808;2023-04-07T05:54:39;98344.38;;;3.10;78.65
64078;BME280;51039;49.696;10.808;2023-04-07T05:57:05;98348.34;;;3.23;75.93
64078;BME280;51039;49.696;10.808;2023-04-07T05:59:31;98345.16;;;3.37;76.20
64078;BME280;51039;49.696;10.808;2023-04-07T06:01:56;98348.47;;;3.47;76.43
64078;BME280;51039;49.696;10.808;2023-04-07T06:04:22;98354.81;;;3.96;75.42
64078;BME280;51039;49.696;10.808;2023-04-07T06:06:47;98344.03;;;3.99;75.28
64078;BME280;51039;49.696;10.808;2023-04-07T06:09:12;98349.72;;;3.78;75.30
64078;BME280;51039;49.696;10.808;2023-04-07T06:11:38;98356.47;;;3.97;75.32
64078;BME280;51039;49.696;10.808;2023-04-07T06:14:03;98345.72;;;4.41;74.12
64078;BME280;51039;49.696;10.808;2023-04-07T06:16:28;98351.94;;;4.72;72.60
64078;BME280;51039;49.696;10.808;2023-04-07T06:18:54;98346.75;;;5.20;71.14
64078;BME280;51039;49.696;10.808;2023-04-07T06:21:19;98338.31;;;5.41;70.61
64078;BME280;51039;49.696;10.808;2023-04-07T06:23:44;98343.22;;;5.44;70.75
64078;BME280;51039;49.696;10.808;2023-04-07T06:26:10;98338.75;;;5.53;69.82
64078;BME280;51039;49.696;10.808;2023-04-07T06:28:36;98342.44;;;5.75;69.69
64078;BME280;51039;49.696;10.808;2023-04-07T06:31:02;98348.53;;;6.53;66.39
64078;BME280;51039;49.696;10.808;2023-04-07T06:33:27;98338.16;;;6.75;65.84
64078;BME280;51039;49.696;10.808;2023-04-07T06:35:52;98338.31;;;7.26;63.86
64078;BME280;51039;49.696;10.808;2023-04-07T06:38:18;98338.13;;;7.79;61.28
64078;BME280;51039;49.696;10.808;2023-04-07T06:40:43;98332.66;;;7.44;61.63
64078;BME280;51039;49.696;10.808;2023-04-07T06:43:09;98339.84;;;7.86;60.87
64078;BME280;51039;49.696;10.808;2023-04-07T06:45:34;98342.53;;;8.30;59.07
64078;BME280;51039;49.696;10.808;2023-04-07T06:47:59;98334.84;;;8.50;58.79
64078;BME280;51039;49.696;10.808;2023-04-07T06:50:24;98339.16;;;8.57;58.16
64078;BME280;51039;49.696;10.808;2023-04-07T06:52:50;98331.09;;;8.01;58.69
64078;BME280;51039;49.696;10.808;2023-04-07T06:55:15;98335.59;;;7.85;59.68
64078;BME280;51039;49.696;10.808;2023-04-07T06:57:40;98334.28;;;8.18;58.33
64078;BME280;51039;49.696;10.808;2023-04-07T07:00:06;98333.03;;;8.14;57.96
64078;BME280;51039;49.696;10.808;2023-04-07T07:02:33;98329.13;;;8.10;58.92
64078;BME280;51039;49.696;10.808;2023-04-07T07:04:58;98330.63;;;7.61;59.63
64078;BME280;51039;49.696;10.808;2023-04-07T07:07:24;98326.38;;;7.15;60.86
64078;BME280;51039;49.696;10.808;2023-04-07T07:09:50;98333.84;;;7.41;59.75
64078;BME280;51039;49.696;10.808;2023-04-07T07:12:15;98333.78;;;7.71;59.26
64078;BME280;51039;49.696;10.808;2023-04-07T07:14:42;98332.97;;;7.85;58.99
64078;BME280;51039;49.696;10.808;2023-04-07T07:17:07;98333.66;;;7.79;59.28
64078;BME280;51039;49.696;10.808;2023-04-07T07:19:32;98342.19;;;7.96;58.25
64078;BME280;51039;49.696;10.808;2023-04-07T07:21:58;98337.38;;;8.21;58.34
64078;BME280;51039;49.696;10.808;2023-04-07T07:24:23;98332.56;;;9.31;55.21
64078;BME280;51039;49.696;10.808;2023-04-07T07:26:48;98337.34;;;10.17;52.87
64078;BME280;51039;49.696;10.808;2023-04-07T07:29:14;98337.03;;;10.74;51.44
64078;BME280;51039;49.696;10.808;2023-04-07T07:31:39;98337.22;;;11.06;50.20
64078;BME280;51039;49.696;10.808;2023-04-07T07:34:05;98339.47;;;11.74;49.61
64078;BME280;51039;49.696;10.808;2023-04-07T07:36:30;98334.06;;;12.01;48.51
64078;BME280;51039;49.696;10.808;2023-04-07T07:38:56;98342.16;;;12.12;49.17
64078;BME280;51039;49.696;10.808;2023-04-07T07:41:21;98345.06;;;12.11;48.58
64078;BME280;51039;49.696;10.808;2023-04-07T07:43:47;98341.31;;;11.73;48.77
64078;BME280;51039;49.696;10.808;2023-04-07T07:46:12;98343.00;;;11.54;49.20
64078;BME280;51039;49.696;10.808;2023-04-07T07:48:37;98341.69;;;11.18;50.54
64078;BME280;51039;49.696;10.808;2023-04-07T07:51:03;98344.75;;;11.15;50.39
64078;BME280;51039;49.696;10.808;2023-04-07T07:53:28;98343.97;;;10.68;51.52
64078;BME280;51039;49.696;10.808;2023-04-07T07:55:54;98347.63;;;10.54;52.05
64078;BME280;51039;49.696;10.808;2023-04-07T07:58:20;98350.28;;;10.47;53.45
64078;BME280;51039;49.696;10.808;2023-04-07T08:00:45;98347.22;;;10.77;51.89
64078;BME280;51039;49.696;10.808;2023-04-07T08:03:11;98344.97;;;11.07;50.76
64078;BME280;51039;49.696;10.808;2023-04-07T08:05:36;98331.25;;;11.30;49.69
64078;BME280;51039;49.696;10.808;2023-04-07T08:08:01;98341.69;;;11.84;47.77
64078;BME280;51039;49.696;10.808;2023-04-07T08:10:27;98336.97;;;11.86;46.68
64078;BME280;51039;49.696;10.808;2023-04-07T08:12:52;98336.50;;;12.66;45.15
64078;BME280;51039;49.696;10.808;2023-04-07T08:15:17;98329.34;;;12.91;43.24
64078;BME280;51039;49.696;10.808;2023-04-07T08:17:43;98333.56;;;13.61;41.49
64078;BME280;51039;49.696;10.808;2023-04-07T08:20:08;98335.84;;;13.58;40.87
64078;BME280;51039;49.696;10.808;2023-04-07T08:22:35;98339.00;;;13.85;40.52
64078;BME280;51039;49.696;10.808;2023-04-07T08:25:01;98333.28;;;12.32;43.94
64078;BME280;51039;49.696;10.808;2023-04-07T08:27:26;98337.31;;;12.91;43.06
64078;BME280;51039;49.696;10.808;2023-04-07T08:29:59;98343.25;;;13.12;42.12
64078;BME280;51039;49.696;10.808;2023-04-07T08:32:32;98338.97;;;13.36;42.31
64078;BME280;51039;49.696;10.808;2023-04-07T08:34:58;98333.75;;;14.69;39.72
64078;BME280;51039;49.696;10.808;2023-04-07T08:37:23;98339.28;;;15.50;38.12
64078;BME280;51039;49.696;10.808;2023-04-07T08:39:49;98336.75;;;14.30;39.25
64078;BME280;51039;49.696;10.808;2023-04-07T08:42:14;98338.97;;;14.87;38.35
64078;BME280;51039;49.696;10.808;2023-04-07T08:44:41;98335.91;;;15.55;37.96
64078;BME280;51039;49.696;10.808;2023-04-07T08:47:08;98336.56;;;14.98;37.65
64078;BME280;51039;49.696;10.808;2023-04-07T08:49:35;98338.31;;;13.59;40.27
64078;BME280;51039;49.696;10.808;2023-04-07T08:52:04;98341.13;;;13.94;41.77
64078;BME280;51039;49.696;10.808;2023-04-07T08:54:30;98330.47;;;14.25;39.00
64078;BME280;51039;49.696;10.808;2023-04-07T08:56:57;98335.84;;;14.79;38.23
64078;BME280;51039;49.696;10.808;2023-04-07T08:59:23;98338.63;;;14.84;39.47
64078;BME280;51039;49.696;10.808;2023-04-07T09:01:53;98338.72;;;14.35;39.55
64078;BME280;51039;49.696;10.808;2023-04-07T09:04:18;98330.28;;;14.68;39.32
64078;BME280;51039;49.696;10.808;2023-04-07T09:06:44;98340.38;;;15.14;39.30
64078;BME280;51039;49.696;10.808;2023-04-07T09:09:10;98338.03;;;15.93;37.47
64078;BME280;51039;49.696;10.808;2023-04-07T09:11:36;98339.69;;;16.57;36.98
64078;BME280;51039;49.696;10.808;2023-04-07T09:14:04;98344.53;;;17.44;36.97
64078;BME280;51039;49.696;10.808;2023-04-07T09:16:30;98336.50;;;17.66;36.31
64078;BME280;51039;49.696;10.808;2023-04-07T09:18:56;98333.66;;;16.16;36.55
64078;BME280;51039;49.696;10.808;2023-04-07T09:21:22;98328.94;;;15.65;38.07
64078;BME280;51039;49.696;10.808;2023-04-07T09:23:48;98331.94;;;16.72;35.64
64078;BME280;51039;49.696;10.808;2023-04-07T09:28:42;98315.56;;;14.36;39.51
64078;BME280;51039;49.696;10.808;2023-04-07T09:31:09;98320.66;;;15.26;38.80
64078;BME280;51039;49.696;10.808;2023-04-07T09:33:34;98317.22;;;17.25;36.10
64078;BME280;51039;49.696;10.808;2023-04-07T09:36:00;98320.38;;;18.05;34.08
64078;BME280;51039;49.696;10.808;2023-04-07T09:38:37;98321.94;;;17.18;33.67
64078;BME280;51039;49.696;10.808;2023-04-07T09:41:13;98309.00;;;17.10;34.21
64078;BME280;51039;49.696;10.808;2023-04-07T09:43:43;98305.66;;;16.35;34.70
64078;BME280;51039;49.696;10.808;2023-04-07T09:46:11;98306.63;;;16.29;35.83
64078;BME280;51039;49.696;10.808;2023-04-07T09:48:41;98313.94;;;16.67;34.69
64078;BME280;51039;49.696;10.808;2023-04-07T09:51:17;98308.81;;;16.49;35.61
64078;BME280;51039;49.696;10.808;2023-04-07T09:53:46;98301.75;;;17.11;35.03
64078;BME280;51039;49.696;10.808;2023-04-07T09:56:16;98302.06;;;17.75;34.40
64078;BME280;51039;49.696;10.808;2023-04-07T09:58:44;98300.19;;;18.25;31.78
64078;BME280;51039;49.696;10.808;2023-04-07T10:01:11;98291.50;;;18.45;34.21
64078;BME280;51039;49.696;10.808;2023-04-07T10:03:37;98292.66;;;18.92;31.93
64078;BME280;51039;49.696;10.808;2023-04-07T10:06:03;98292.28;;;18.73;31.95
64078;BME280;51039;49.696;10.808;2023-04-07T10:08:34;98290.75;;;18.22;32.15
64078;BME280;51039;49.696;10.808;2023-04-07T10:11:01;98298.22;;;16.71;32.95
64078;BME280;51039;49.696;10.808;2023-04-07T10:13:28;98296.69;;;15.43;35.52
64078;BME280;51039;49.696;10.808;2023-04-07T10:15:54;98291.25;;;15.50;35.40
64078;BME280;51039;49.696;10.808;2023-04-07T10:18:20;98292.44;;;15.30;35.57
64078;BME280;51039;49.696;10.808;2023-04-07T10:20:47;98299.09;;;15.68;35.42
64078;BME280;51039;49.696;10.808;2023-04-07T10:23:18;98291.72;;;16.33;35.39
64078;BME280;51039;49.696;10.808;2023-04-07T10:25:47;98293.63;;;17.22;34.31
64078;BME280;51039;49.696;10.808;2023-04-07T10:28:16;98292.72;;;17.56;34.35
64078;BME280;51039;49.696;10.808;2023-04-07T10:30:45;98290.09;;;17.83;33.67
64078;BME280;51039;49.696;10.808;2023-04-07T10:33:12;98291.66;;;17.79;33.67
64078;BME280;51039;49.696;10.808;2023-04-07T10:38:29;98286.91;;;18.40;31.28
64078;BME280;51039;49.696;10.808;2023-04-07T10:40:55;98283.66;;;16.96;35.33
64078;BME280;51039;49.696;10.808;2023-04-07T10:46:15;98280.03;;;17.95;33.01
64078;BME280;51039;49.696;10.808;2023-04-07T10:48:41;98281.06;;;17.89;33.19
64078;BME280;51039;49.696;10.808;2023-04-07T10:51:10;98292.16;;;17.98;33.20
64078;BME280;51039;49.696;10.808;2023-04-07T10:53:58;98286.81;;;16.42;35.71
64078;BME280;51039;49.696;10.808;2023-04-07T10:57:03;98293.34;;;17.19;36.18
64078;BME280;51039;49.696;10.808;2023-04-07T10:59:36;98292.22;;;16.64;35.67
64078;BME280;51039;49.696;10.808;2023-04-07T11:04:44;98296.13;;;17.29;35.34
64078;BME280;51039;49.696;10.808;2023-04-07T11:07:11;98284.66;;;17.34;34.67
64078;BME280;51039;49.696;10.808;2023-04-07T11:09:39;98288.16;;;16.95;35.93
64078;BME280;51039;49.696;10.808;2023-04-07T11:12:04;98288.50;;;16.31;37.33
64078;BME280;51039;49.696;10.808;2023-04-07T11:14:30;98280.47;;;16.31;37.31
64078;BME280;51039;49.696;10.808;2023-04-07T11:16:58;98286.34;;;16.16;37.23
64078;BME280;51039;49.696;10.808;2023-04-07T11:19:25;98291.19;;;16.65;36.53
64078;BME280;51039;49.696;10.808;2023-04-07T11:21:51;98275.78;;;15.52;37.93
64078;BME280;51039;49.696;10.808;2023-04-07T11:24:39;98283.19;;;15.62;38.68
64078;BME280;51039;49.696;10.808;2023-04-07T11:27:05;98277.50;;;15.06;40.08
64078;BME280;51039;49.696;10.808;2023-04-07T11:29:36;98278.16;;;15.37;38.25
64078;BME280;51039;49.696;10.808;2023-04-07T11:32:01;98277.72;;;15.97;37.52
64078;BME280;51039;49.696;10.808;2023-04-07T11:34:30;98270.66;;;16.20;37.53
64078;BME280;51039;49.696;10.808;2023-04-07T11:36:56;98276.59;;;14.11;39.11
64078;BME280;51039;49.696;10.808;2023-04-07T11:39:24;98275.38;;;15.31;39.33
64078;BME280;51039;49.696;10.808;2023-04-07T11:41:57;98279.31;;;15.81;39.07
64078;BME280;51039;49.696;10.808;2023-04-07T11:44:22;98274.47;;;15.66;38.14
64078;BME280;51039;49.696;10.808;2023-04-07T11:46:54;98286.66;;;15.74;38.58
64078;BME280;51039;49.696;10.808;2023-04-07T11:49:20;98288.63;;;15.26;39.50
64078;BME280;51039;49.696;10.808;2023-04-07T11:51:47;98279.72;;;14.62;41.06
64078;BME280;51039;49.696;10.808;2023-04-07T11:54:13;98284.47;;;14.95;40.59
64078;BME280;51039;49.696;10.808;2023-04-07T11:56:43;98286.69;;;14.98;40.89
64078;BME280;51039;49.696;10.808;2023-04-07T11:59:17;98284.81;;;14.99;41.32
64078;BME280;51039;49.696;10.808;2023-04-07T12:01:47;98284.59;;;14.88;40.79
64078;BME280;51039;49.696;10.808;2023-04-07T12:04:13;98279.84;;;14.67;41.55
64078;BME280;51039;49.696;10.808;2023-04-07T12:06:40;98281.97;;;14.46;42.40
64078;BME280;51039;49.696;10.808;2023-04-07T12:09:07;98271.78;;;14.43;43.97
64078;BME280;51039;49.696;10.808;2023-04-07T12:11:33;98271.19;;;14.29;43.35
64078;BME280;51039;49.696;10.808;2023-04-07T12:14:00;98271.75;;;13.89;44.01
64078;BME280;51039;49.696;10.808;2023-04-07T12:16:28;98272.19;;;13.74;44.23
64078;BME280;51039;49.696;10.808;2023-04-07T12:18:54;98270.00;;;13.53;45.48
64078;BME280;51039;49.696;10.808;2023-04-07T12:21:19;98274.44;;;13.59;44.79
64078;BME280;51039;49.696;10.808;2023-04-07T12:23:45;98273.94;;;13.81;44.08
64078;BME280;51039;49.696;10.808;2023-04-07T12:26:11;98270.13;;;13.58;44.32
64078;BME280;51039;49.696;10.808;2023-04-07T12:28:37;98268.28;;;13.59;44.08
64078;BME280;51039;49.696;10.808;2023-04-07T12:31:02;98281.94;;;13.62;45.42
64078;BME280;51039;49.696;10.808;2023-04-07T12:33:28;98281.72;;;13.64;44.91
64078;BME280;51039;49.696;10.808;2023-04-07T12:35:54;98286.09;;;13.21;45.50
64078;BME280;51039;49.696;10.808;2023-04-07T12:38:19;98277.22;;;13.27;44.78
64078;BME280;51039;49.696;10.808;2023-04-07T12:40:45;98284.34;;;13.33;45.30
64078;BME280;51039;49.696;10.808;2023-04-07T12:43:10;98284.56;;;13.50;44.92
64078;BME280;51039;49.696;10.808;2023-04-07T12:45:36;98284.34;;;13.33;45.21
64078;BME280;51039;49.696;10.808;2023-04-07T12:48:01;98273.38;;;12.86;45.90
64078;BME280;51039;49.696;10.808;2023-04-07T12:50:27;98276.56;;;12.70;46.81
64078;BME280;51039;49.696;10.808;2023-04-07T12:52:54;98275.44;;;12.59;47.96
64078;BME280;51039;49.696;10.808;2023-04-07T12:55:19;98283.53;;;12.71;46.15
64078;BME280;51039;49.696;10.808;2023-04-07T12:57:45;98277.28;;;12.58;46.61
64078;BME280;51039;49.696;10.808;2023-04-07T13:00:11;98282.56;;;12.40;46.80
64078;BME280;51039;49.696;10.808;2023-04-07T13:02:37;98281.84;;;12.51;46.99
64078;BME280;51039;49.696;10.808;2023-04-07T13:05:03;98272.72;;;12.41;46.57
64078;BME280;51039;49.696;10.808;2023-04-07T13:07:28;98284.59;;;12.38;46.96
64078;BME280;51039;49.696;10.808;2023-04-07T13:09:54;98278.53;;;12.31;48.38
64078;BME280;51039;49.696;10.808;2023-04-07T13:12:21;98284.97;;;12.16;48.16
64078;BME280;51039;49.696;10.808;2023-04-07T13:14:46;98287.19;;;12.20;48.70